Time,TemperatureF,DewpointF,PressureIn,WindDirection,WindDirectionDegrees,WindSpeedMPH,WindSpeedGustMPH,Humidity,HourlyPrecipIn,Conditions,Clouds,dailyrainin,SolarRadiationWatts/m^2,SoftwareType,DateUTC
2013-05-16 00:02:00,42.0,39.0,-100.00,NW,311,7.0,18.0,88,0.00,,,0.04,0.000000,,2013-05-16 07:02:00,
2013-05-16 00:12:00,42.0,39.0,-100.00,NW,311,7.0,18.0,88,0.00,,,0.04,0.000000,,2013-05-16 07:12:00,
2013-05-16 00:24:00,42.0,39.0,-100.00,NW,311,7.0,18.0,88,0.00,,,0.04,0.000000,,2013-05-16 07:24:00,
2013-05-16 00:34:00,41.0,38.0,-100.00,West,280,5.0,13.0,89,0.00,,,0.04,0.000000,,2013-05-16 07:34:00,
2013-05-16 00:54:00,41.0,38.0,-100.00,West,280,5.0,13.0,89,0.00,,,0.04,0.000000,,2013-05-16 07:54:00,
2013-05-16 01:03:00,41.0,38.0,-100.00,West,280,5.0,13.0,89,0.00,,,0.04,0.000000,,2013-05-16 08:03:00,
2013-05-16 01:13:00,41.0,38.0,-100.00,West,280,5.0,13.0,89,0.00,,,0.04,0.000000,,2013-05-16 08:13:00,
2013-05-16 01:23:00,41.0,38.0,-100.00,West,280,5.0,13.0,89,0.00,,,0.04,0.000000,,2013-05-16 08:23:00,
2013-05-16 01:34:00,42.0,38.0,-100.00,WNW,286,6.0,9.0,87,0.00,,,0.04,0.000000,,2013-05-16 08:34:00,
2013-05-16 01:55:00,42.0,38.0,-100.00,WNW,286,6.0,9.0,87,0.00,,,0.04,0.000000,,2013-05-16 08:55:00,
2013-05-16 02:04:00,42.0,38.0,-100.00,WNW,286,6.0,9.0,87,0.00,,,0.04,0.000000,,2013-05-16 09:04:00,
2013-05-16 02:14:00,42.0,38.0,-100.00,WNW,286,6.0,9.0,87,0.00,,,0.04,0.000000,,2013-05-16 09:14:00,
2013-05-16 02:24:00,42.0,38.0,-100.00,WNW,286,6.0,9.0,87,0.00,,,0.04,0.000000,,2013-05-16 09:24:00,
2013-05-16 02:34:00,41.0,39.0,-100.00,NW,314,3.0,8.0,91,0.00,,,0.04,0.000000,,2013-05-16 09:34:00,
2013-05-16 02:55:00,41.0,39.0,-100.00,NW,314,3.0,8.0,91,0.00,,,0.04,0.000000,,2013-05-16 09:55:00,
2013-05-16 03:04:00,41.0,39.0,-100.00,NW,314,3.0,8.0,91,0.00,,,0.04,0.000000,,2013-05-16 10:04:00,
2013-05-16 03:15:00,41.0,39.0,-100.00,NW,314,3.0,8.0,91,0.00,,,0.04,0.000000,,2013-05-16 10:15:00,
2013-05-16 03:24:00,41.0,39.0,-100.00,NW,314,3.0,8.0,91,0.00,,,0.04,0.000000,,2013-05-16 10:24:00,
2013-05-16 03:34:00,42.0,38.0,-100.00,SW,223,3.0,6.0,84,0.00,,,0.04,0.000000,,2013-05-16 10:34:00,
2013-05-16 03:56:00,42.0,38.0,-100.00,SW,223,3.0,6.0,84,0.00,,,0.04,0.000000,,2013-05-16 10:56:00,
2013-05-16 04:05:00,42.0,38.0,-100.00,SW,223,3.0,6.0,84,0.00,,,0.04,0.000000,,2013-05-16 11:05:00,
2013-05-16 04:14:00,42.0,38.0,-100.00,SW,223,3.0,6.0,84,0.00,,,0.04,0.000000,,2013-05-16 11:14:00,
2013-05-16 04:25:00,42.0,38.0,-100.00,SW,223,3.0,6.0,84,0.00,,,0.04,0.000000,,2013-05-16 11:25:00,
2013-05-16 04:34:00,42.0,38.0,-100.00,South,191,1.0,3.0,85,0.00,,,0.04,0.000000,,2013-05-16 11:34:00,
2013-05-16 04:57:00,42.0,38.0,-100.00,South,191,1.0,3.0,85,0.00,,,0.04,0.000000,,2013-05-16 11:57:00,
2013-05-16 05:06:00,42.0,38.0,-100.00,South,191,1.0,3.0,85,0.00,,,0.04,0.000000,,2013-05-16 12:06:00,
2013-05-16 05:13:00,42.0,38.0,-100.00,South,191,1.0,3.0,85,0.00,,,0.04,0.000000,,2013-05-16 12:13:00,
2013-05-16 05:23:00,42.0,38.0,-100.00,South,191,1.0,3.0,85,0.00,,,0.04,0.000000,,2013-05-16 12:23:00,
2013-05-16 05:34:00,42.0,38.0,-100.00,SE,138,0.0,4.0,87,0.00,,,0.04,0.000000,,2013-05-16 12:34:00,
2013-05-16 05:53:00,42.0,38.0,-100.00,SE,138,0.0,4.0,87,0.00,,,0.04,0.000000,,2013-05-16 12:53:00,
2013-05-16 06:04:00,42.0,38.0,-100.00,SE,138,0.0,4.0,87,0.00,,,0.04,0.000000,,2013-05-16 13:04:00,
2013-05-16 06:12:00,42.0,38.0,-100.00,SE,138,0.0,4.0,87,0.00,,,0.04,0.000000,,2013-05-16 13:12:00,
2013-05-16 06:26:00,42.0,38.0,-100.00,SE,138,0.0,4.0,87,0.00,,,0.04,0.000000,,2013-05-16 13:26:00,
2013-05-16 06:34:00,42.0,38.0,-100.00,NE,45,3.0,4.0,87,0.00,,,0.04,17.000000,,2013-05-16 13:34:00,
2013-05-16 06:55:00,42.0,38.0,-100.00,NE,45,3.0,4.0,87,0.00,,,0.04,17.000000,,2013-05-16 13:55:00,
2013-05-16 07:05:00,42.0,38.0,-100.00,NE,45,3.0,4.0,87,0.00,,,0.04,17.000000,,2013-05-16 14:05:00,
2013-05-16 07:15:00,42.0,38.0,-100.00,NE,45,3.0,4.0,87,0.00,,,0.04,17.000000,,2013-05-16 14:15:00,
2013-05-16 07:23:00,42.0,38.0,-100.00,NE,45,3.0,4.0,87,0.00,,,0.04,17.000000,,2013-05-16 14:23:00,
2013-05-16 07:34:00,46.0,40.0,-100.00,SSW,207,3.0,6.0,80,0.00,,,0.04,115.000000,,2013-05-16 14:34:00,
2013-05-16 07:56:00,46.0,40.0,-100.00,SSW,207,3.0,6.0,80,0.00,,,0.04,115.000000,,2013-05-16 14:56:00,
2013-05-16 08:08:00,46.0,40.0,-100.00,SSW,207,3.0,6.0,80,0.00,,,0.04,115.000000,,2013-05-16 15:08:00,
2013-05-16 08:17:00,46.0,40.0,-100.00,SSW,207,3.0,6.0,80,0.00,,,0.04,115.000000,,2013-05-16 15:17:00,
2013-05-16 08:28:00,46.0,40.0,-100.00,SSW,207,3.0,6.0,80,0.00,,,0.04,115.000000,,2013-05-16 15:28:00,
2013-05-16 08:34:00,48.0,-99.9,-100.00,SSW,198,4.0,6.0,75,0.00,,,0.04,271.000000,,2013-05-16 15:34:00,
2013-05-16 09:00:00,48.0,40.0,-100.00,SSW,198,4.0,6.0,75,0.00,,,0.04,271.000000,,2013-05-16 16:00:00,
2013-05-16 09:09:00,48.0,40.0,-100.00,SSW,198,4.0,6.0,75,0.00,,,0.04,271.000000,,2013-05-16 16:09:00,
2013-05-16 09:19:00,48.0,40.0,-100.00,SSW,198,4.0,6.0,75,0.00,,,0.04,271.000000,,2013-05-16 16:19:00,
2013-05-16 09:30:00,48.0,40.0,-100.00,SSW,198,4.0,6.0,75,0.00,,,0.04,271.000000,,2013-05-16 16:30:00,
2013-05-16 09:34:00,50.0,39.0,-100.00,South,187,4.0,8.0,67,0.00,,,0.04,420.000000,,2013-05-16 16:34:00,
2013-05-16 10:00:00,50.0,39.0,-100.00,South,187,4.0,8.0,67,0.00,,,0.04,420.000000,,2013-05-16 17:00:00,
2013-05-16 10:10:00,50.0,39.0,-100.00,South,187,4.0,8.0,67,0.00,,,0.04,420.000000,,2013-05-16 17:10:00,
2013-05-16 10:20:00,50.0,39.0,-100.00,South,187,4.0,8.0,67,0.00,,,0.04,420.000000,,2013-05-16 17:20:00,
2013-05-16 10:30:00,50.0,39.0,-100.00,South,187,4.0,8.0,67,0.00,,,0.04,420.000000,,2013-05-16 17:30:00,
2013-05-16 10:34:00,-999.0,-99.9,-100.00,South,175,4.0,7.0,64,0.00,,,0.04,554.000000,,2013-05-16 17:34:00,
2013-05-16 11:00:00,-999.0,-99.9,-100.00,South,175,4.0,7.0,64,0.00,,,0.04,554.000000,,2013-05-16 18:00:00,
2013-05-16 11:10:00,52.0,40.0,-100.00,South,175,4.0,7.0,64,0.00,,,0.04,554.000000,,2013-05-16 18:10:00,
2013-05-16 11:20:00,52.0,40.0,-100.00,South,175,4.0,7.0,64,0.00,,,0.04,554.000000,,2013-05-16 18:20:00,
2013-05-16 11:30:00,-999.0,-99.9,-100.00,South,175,4.0,7.0,64,0.00,,,0.04,554.000000,,2013-05-16 18:30:00,
2013-05-16 11:34:00,55.0,-99.9,-100.00,South,180,5.0,9.0,51,0.00,,,0.04,830.000000,,2013-05-16 18:34:00,
2013-05-16 12:00:00,-999.0,-99.9,-100.00,South,180,5.0,9.0,51,0.00,,,0.04,830.000000,,2013-05-16 19:00:00,
2013-05-16 12:10:00,55.0,37.0,-100.00,South,180,5.0,9.0,51,0.00,,,0.04,830.000000,,2013-05-16 19:10:00,
2013-05-16 12:20:00,55.0,37.0,-100.00,South,180,5.0,9.0,51,0.00,,,0.04,830.000000,,2013-05-16 19:20:00,
2013-05-16 12:30:00,55.0,37.0,-100.00,South,180,5.0,9.0,51,0.00,,,0.04,830.000000,,2013-05-16 19:30:00,
2013-05-16 12:34:00,-999.0,-99.9,-100.00,ESE,116,6.0,10.0,49,0.00,,,0.04,789.000000,,2013-05-16 19:34:00,
2013-05-16 13:00:00,-999.0,-99.9,-100.00,ESE,116,6.0,10.0,49,0.00,,,0.04,789.000000,,2013-05-16 20:00:00,
2013-05-16 13:10:00,-999.0,-99.9,-100.00,ESE,116,6.0,10.0,49,0.00,,,0.04,789.000000,,2013-05-16 20:10:00,
2013-05-16 13:20:00,58.0,-99.9,-100.00,ESE,116,6.0,10.0,49,0.00,,,0.04,789.000000,,2013-05-16 20:20:00,
2013-05-16 13:30:00,58.0,39.0,-100.00,ESE,116,6.0,10.0,49,0.00,,,0.04,789.000000,,2013-05-16 20:30:00,
2013-05-16 13:34:00,61.0,36.0,-100.00,SSE,166,5.0,11.0,40,0.00,,,0.03,827.000000,,2013-05-16 20:34:00,
2013-05-16 14:00:00,61.0,-99.9,-100.00,SSE,166,5.0,11.0,40,0.00,,,0.03,827.000000,,2013-05-16 21:00:00,
2013-05-16 14:10:00,61.0,-99.9,-100.00,SSE,166,5.0,11.0,40,0.00,,,0.03,827.000000,,2013-05-16 21:10:00,
2013-05-16 14:34:00,61.0,36.0,-100.00,SE,142,5.0,11.0,39,0.00,,,0.03,716.000000,,2013-05-16 21:34:00,
2013-05-16 15:00:00,-999.0,-99.9,-100.00,SE,142,5.0,11.0,39,0.00,,,0.03,716.000000,,2013-05-16 22:00:00,
2013-05-16 15:08:00,61.0,36.0,-100.00,SE,142,5.0,11.0,39,0.00,,,0.03,716.000000,,2013-05-16 22:08:00,
2013-05-16 15:20:00,61.0,36.0,-100.00,SE,142,5.0,11.0,39,0.00,,,0.03,716.000000,,2013-05-16 22:20:00,
2013-05-16 15:30:00,61.0,36.0,-100.00,SE,142,5.0,11.0,39,0.00,,,0.03,716.000000,,2013-05-16 22:30:00,
2013-05-16 15:34:00,49.0,34.0,-100.00,NW,312,11.0,19.0,56,0.00,,,0.03,234.000000,,2013-05-16 22:34:00,
2013-05-16 16:01:00,49.0,34.0,-100.00,NW,312,11.0,19.0,56,0.00,,,0.03,234.000000,,2013-05-16 23:01:00,
2013-05-16 16:06:00,49.0,34.0,-100.00,NW,312,11.0,19.0,56,0.00,,,0.03,234.000000,,2013-05-16 23:06:00,
2013-05-16 16:16:00,49.0,34.0,-100.00,NW,312,11.0,19.0,56,0.00,,,0.03,234.000000,,2013-05-16 23:16:00,
2013-05-16 16:24:00,49.0,34.0,-100.00,NW,312,11.0,19.0,56,0.00,,,0.03,234.000000,,2013-05-16 23:24:00,
2013-05-16 16:54:00,50.0,42.0,-100.00,NNW,328,10.0,21.0,74,0.00,,,0.03,373.000000,,2013-05-16 23:54:00,
2013-05-16 17:02:00,50.0,42.0,-100.00,NNW,328,10.0,21.0,74,0.00,,,0.03,373.000000,,2013-05-17 00:02:00,
2013-05-16 17:13:00,50.0,42.0,-100.00,NNW,328,10.0,21.0,74,0.00,,,0.03,373.000000,,2013-05-17 00:13:00,
2013-05-16 17:22:00,50.0,42.0,-100.00,NNW,328,10.0,21.0,74,0.00,,,0.03,373.000000,,2013-05-17 00:22:00,
2013-05-16 17:33:00,50.0,42.0,-100.00,NNW,328,10.0,21.0,74,0.00,,,0.03,373.000000,,2013-05-17 00:33:00,
2013-05-16 17:53:00,50.0,41.0,-100.00,NW,315,10.0,19.0,72,0.00,,,0.03,246.000000,,2013-05-17 00:53:00,
2013-05-16 18:03:00,50.0,41.0,-100.00,NW,315,10.0,19.0,72,0.00,,,0.03,246.000000,,2013-05-17 01:03:00,
2013-05-16 18:12:00,50.0,41.0,-100.00,NW,315,10.0,19.0,72,0.00,,,0.03,246.000000,,2013-05-17 01:12:00,
2013-05-16 18:23:00,50.0,41.0,-100.00,NW,315,10.0,19.0,72,0.00,,,0.03,246.000000,,2013-05-17 01:23:00,
2013-05-16 18:31:00,50.0,41.0,-100.00,NW,315,10.0,19.0,72,0.00,,,0.03,246.000000,,2013-05-17 01:31:00,
2013-05-16 18:52:00,45.0,41.0,-100.00,NW,323,8.0,17.0,86,0.01,,,0.03,58.000000,,2013-05-17 01:52:00,
2013-05-16 19:02:00,45.0,41.0,-100.00,NW,323,8.0,17.0,86,0.01,,,0.03,58.000000,,2013-05-17 02:02:00,
2013-05-16 19:11:00,45.0,41.0,-100.00,NW,323,8.0,17.0,86,0.01,,,0.03,58.000000,,2013-05-17 02:11:00,
2013-05-16 19:21:00,45.0,41.0,-100.00,NW,323,8.0,17.0,86,0.01,,,0.03,58.000000,,2013-05-17 02:21:00,
2013-05-16 19:32:00,45.0,41.0,-100.00,NW,323,8.0,17.0,86,0.01,,,0.03,58.000000,,2013-05-17 02:32:00,
2013-05-16 19:53:00,44.0,41.0,-100.00,NW,325,8.0,15.0,90,0.05,,,0.06,24.000000,,2013-05-17 02:53:00,
2013-05-16 20:01:00,44.0,41.0,-100.00,NW,325,8.0,15.0,90,0.05,,,0.06,24.000000,,2013-05-17 03:01:00,
2013-05-16 20:11:00,44.0,41.0,-100.00,NW,325,8.0,15.0,90,0.05,,,0.06,24.000000,,2013-05-17 03:11:00,
2013-05-16 20:22:00,44.0,41.0,-100.00,NW,325,8.0,15.0,90,0.05,,,0.06,24.000000,,2013-05-17 03:22:00,
2013-05-16 20:33:00,44.0,41.0,-100.00,NW,325,8.0,15.0,90,0.05,,,0.06,24.000000,,2013-05-17 03:33:00,
2013-05-16 20:53:00,42.0,40.0,-100.00,NW,321,8.0,15.0,93,0.04,,,0.10,10.000000,,2013-05-17 03:53:00,
2013-05-16 21:02:00,42.0,40.0,-100.00,NW,321,8.0,15.0,93,0.04,,,0.10,10.000000,,2013-05-17 04:02:00,
2013-05-16 21:13:00,42.0,40.0,-100.00,NW,321,8.0,15.0,93,0.04,,,0.10,10.000000,,2013-05-17 04:13:00,
2013-05-16 21:23:00,42.0,40.0,-100.00,NW,321,8.0,15.0,93,0.04,,,0.10,10.000000,,2013-05-17 04:23:00,
2013-05-16 21:33:00,42.0,40.0,-100.00,NW,321,8.0,15.0,93,0.04,,,0.10,10.000000,,2013-05-17 04:33:00,
2013-05-16 21:53:00,42.0,40.0,-100.00,NNW,327,8.0,14.0,93,0.03,,,0.13,0.000000,,2013-05-17 04:53:00,
2013-05-16 22:02:00,42.0,40.0,-100.00,NNW,327,8.0,14.0,93,0.03,,,0.13,0.000000,,2013-05-17 05:02:00,
2013-05-16 22:13:00,42.0,40.0,-100.00,NNW,327,8.0,14.0,93,0.03,,,0.13,0.000000,,2013-05-17 05:13:00,
2013-05-16 22:21:00,42.0,40.0,-100.00,NNW,327,8.0,14.0,93,0.03,,,0.13,0.000000,,2013-05-17 05:21:00,
2013-05-16 22:32:00,42.0,40.0,-100.00,NNW,327,8.0,14.0,93,0.03,,,0.13,0.000000,,2013-05-17 05:32:00,
2013-05-16 22:52:00,42.0,41.0,-100.00,NNW,332,6.0,13.0,95,0.04,,,0.17,0.000000,,2013-05-17 05:52:00,
2013-05-16 23:01:00,42.0,41.0,-100.00,NNW,332,6.0,13.0,95,0.04,,,0.17,0.000000,,2013-05-17 06:01:00,
2013-05-16 23:11:00,42.0,41.0,-100.00,NNW,332,6.0,13.0,95,0.04,,,0.17,0.000000,,2013-05-17 06:11:00,
2013-05-16 23:21:00,42.0,41.0,-100.00,NNW,332,6.0,13.0,95,0.04,,,0.17,0.000000,,2013-05-17 06:21:00,
2013-05-16 23:32:00,42.0,41.0,-100.00,NNW,332,6.0,13.0,95,0.04,,,0.17,0.000000,,2013-05-17 06:32:00,
2013-05-16 23:52:00,41.0,40.0,-100.00,NNW,335,8.0,15.0,96,0.02,,,0.19,0.000000,,2013-05-17 06:52:00,